createdAt,value
2018-05-23T00:00:37.496Z,15.98
2018-05-23T00:03:05.272Z,16.11
2018-05-23T00:05:32.773Z,16.16
2018-05-23T00:08:00.272Z,15.96
2018-05-23T00:10:27.785Z,16.11
2018-05-23T00:12:55.288Z,16.18
2018-05-23T00:15:22.813Z,16.20
2018-05-23T00:17:50.301Z,16.28
2018-05-23T00:20:18.250Z,16.46
2018-05-23T00:22:45.749Z,16.23
2018-05-23T00:25:13.241Z,16.33
2018-05-23T00:27:40.859Z,16.36
2018-05-23T00:30:08.353Z,16.48
2018-05-23T00:32:35.872Z,16.43
2018-05-23T00:35:03.364Z,16.48
2018-05-23T00:37:30.889Z,16.54
2018-05-23T00:39:58.380Z,16.53
2018-05-23T00:42:26.244Z,16.48
2018-05-23T00:44:53.761Z,16.50
2018-05-23T00:47:21.269Z,17.17
2018-05-23T00:49:48.780Z,16.98
2018-05-23T00:52:16.378Z,16.80
2018-05-23T00:54:55.740Z,16.48
2018-05-23T00:57:23.237Z,16.38
2018-05-23T00:59:50.852Z,16.46
2018-05-23T01:02:18.337Z,16.59
2018-05-23T01:04:45.835Z,16.83
2018-05-23T01:07:13.363Z,16.76
2018-05-23T01:09:40.878Z,16.90
2018-05-23T01:12:08.404Z,16.69
2018-05-23T01:14:35.889Z,17.08
2018-05-23T01:17:03.878Z,17.34
2018-05-23T01:19:31.381Z,16.92
2018-05-23T01:21:58.857Z,16.85
2018-05-23T01:24:26.414Z,16.77
2018-05-23T01:26:53.913Z,16.81
2018-05-23T01:29:21.425Z,16.60
2018-05-23T01:31:48.914Z,16.65
2018-05-23T01:34:16.787Z,16.37
2018-05-23T01:36:44.272Z,16.49
2018-05-23T01:39:11.778Z,16.48
2018-05-23T01:41:39.290Z,16.41
2018-05-23T01:44:06.782Z,16.29
2018-05-23T01:46:34.324Z,16.42
2018-05-23T01:49:13.688Z,16.42
2018-05-23T01:51:41.259Z,16.39
2018-05-23T01:54:08.746Z,16.22
2018-05-23T01:56:36.399Z,16.27
2018-05-23T01:59:03.889Z,16.15
2018-05-23T02:01:31.484Z,16.23
2018-05-23T02:03:59.002Z,16.26
2018-05-23T02:06:26.493Z,16.60
2018-05-23T02:08:54.005Z,16.34
2018-05-23T02:11:21.497Z,16.42
2018-05-23T02:13:49.285Z,16.47
2018-05-23T02:16:16.776Z,16.46
2018-05-23T02:18:44.268Z,16.35
2018-05-23T02:21:11.789Z,16.25
2018-05-23T02:23:39.360Z,16.26
2018-05-23T02:26:06.813Z,16.14
2018-05-23T02:28:34.317Z,16.16
2018-05-23T02:31:01.854Z,16.26
2018-05-23T02:33:29.378Z,16.14
2018-05-23T02:35:56.882Z,16.24
2018-05-23T02:38:24.398Z,16.25
2018-05-23T02:40:51.893Z,16.14
2018-05-23T02:43:19.409Z,16.07
2018-05-23T02:45:46.917Z,16.09
2018-05-23T02:48:14.804Z,16.14
2018-05-23T02:50:42.297Z,15.99
2018-05-23T02:53:09.773Z,16.06
2018-05-23T02:55:37.310Z,16.19
2018-05-23T02:58:04.805Z,16.29
2018-05-23T03:00:32.313Z,16.29
2018-05-23T03:02:59.853Z,16.17
2018-05-23T03:05:27.504Z,16.17
2018-05-23T03:07:55.004Z,16.19
2018-05-23T03:10:22.501Z,16.08
2018-05-23T03:12:50.020Z,16.22
2018-05-23T03:15:17.505Z,16.16
2018-05-23T03:17:45.014Z,16.06
2018-05-23T03:20:12.529Z,16.03
2018-05-23T03:22:40.013Z,15.95
2018-05-23T03:25:07.537Z,15.93
2018-05-23T03:27:35.032Z,15.84
2018-05-23T03:30:02.567Z,15.77
2018-05-23T03:32:30.093Z,15.94
2018-05-23T03:34:57.577Z,16.11
2018-05-23T03:37:25.093Z,15.81
2018-05-23T03:39:52.605Z,15.84
2018-05-23T03:42:20.242Z,15.91
2018-05-23T03:44:47.737Z,15.91
2018-05-23T03:47:15.221Z,16.01
2018-05-23T03:49:42.737Z,16.04
2018-05-23T03:52:10.229Z,16.04
2018-05-23T03:54:37.779Z,15.94
2018-05-23T03:57:05.257Z,15.98
2018-05-23T03:59:44.725Z,16.09
2018-05-23T04:02:24.009Z,16.04
2018-05-23T04:05:04.470Z,15.96
2018-05-23T04:07:37.808Z,16.04
2018-05-23T04:10:06.461Z,15.99
2018-05-23T04:12:33.945Z,16.05
2018-05-23T04:15:01.433Z,16.11
2018-05-23T04:17:28.948Z,16.23
2018-05-23T04:19:56.425Z,16.18
2018-05-23T04:22:24.276Z,16.09
2018-05-23T04:24:51.780Z,16.14
2018-05-23T04:27:19.277Z,16.12
2018-05-23T04:29:46.797Z,15.83
2018-05-23T04:32:14.361Z,15.64
2018-05-23T04:34:42.077Z,15.81
2018-05-23T04:37:09.569Z,15.98
2018-05-23T04:39:37.052Z,16.01
2018-05-23T04:42:04.572Z,16.11
2018-05-23T04:44:32.065Z,16.08
2018-05-23T04:46:59.750Z,15.93
2018-05-23T04:49:27.237Z,16.08
2018-05-23T04:51:54.739Z,16.06
2018-05-23T04:54:22.269Z,16.14
2018-05-23T04:56:49.769Z,16.06
2018-05-23T04:59:17.273Z,16.24
2018-05-23T05:01:44.760Z,16.25
2018-05-23T05:04:12.432Z,16.37
2018-05-23T05:06:39.913Z,16.45
2018-05-23T05:09:07.444Z,16.53
2018-05-23T05:11:34.948Z,16.62
2018-05-23T05:14:02.443Z,16.64
2018-05-23T05:16:29.968Z,16.61
2018-05-23T05:18:57.452Z,16.58
2018-05-23T05:21:25.001Z,16.72
2018-05-23T05:23:52.499Z,17.01
2018-05-23T05:26:20.009Z,16.95
2018-05-23T05:28:47.546Z,16.83
2018-05-23T05:31:15.037Z,16.76
2018-05-23T05:33:42.541Z,16.74
2018-05-23T05:36:10.031Z,17.33
2018-05-23T05:38:37.557Z,17.49
2018-05-23T05:41:05.084Z,17.18
2018-05-23T05:43:32.577Z,17.24
2018-05-23T05:46:00.090Z,17.07
2018-05-23T05:48:27.569Z,17.37
2018-05-23T05:50:55.090Z,17.32
2018-05-23T05:53:22.568Z,17.18
2018-05-23T05:55:50.230Z,17.08
2018-05-23T05:58:17.729Z,17.07
2018-05-23T06:00:45.205Z,17.17
2018-05-23T06:03:12.729Z,17.03
2018-05-23T06:05:40.213Z,17.11
2018-05-23T06:08:07.721Z,17.59
2018-05-23T06:10:35.221Z,17.64
2018-05-23T06:13:03.162Z,17.38
2018-05-23T06:15:30.818Z,17.29
2018-05-23T06:17:58.309Z,17.54
2018-05-23T06:20:25.821Z,17.68
2018-05-23T06:22:53.303Z,17.57
2018-05-23T06:25:20.835Z,17.63
2018-05-23T06:27:48.321Z,17.35
2018-05-23T06:30:16.276Z,17.18
2018-05-23T06:32:43.769Z,17.19
2018-05-23T06:35:11.276Z,17.21
2018-05-23T06:37:38.807Z,17.42
2018-05-23T06:40:06.300Z,17.44
2018-05-23T06:42:33.805Z,17.34
2018-05-23T06:45:01.289Z,17.30
2018-05-23T06:47:28.822Z,17.47
2018-05-23T06:49:56.330Z,17.59
2018-05-23T06:52:23.829Z,17.49
2018-05-23T06:54:51.382Z,17.37
2018-05-23T06:57:18.886Z,17.25
2018-05-23T06:59:46.413Z,17.37
2018-05-23T07:02:13.905Z,17.43
2018-05-23T07:04:41.856Z,17.48
2018-05-23T07:07:09.341Z,17.46
2018-05-23T07:09:36.832Z,17.72
2018-05-23T07:12:04.349Z,17.67
2018-05-23T07:14:31.860Z,17.77
2018-05-23T07:16:59.454Z,17.81
2018-05-23T07:19:26.885Z,17.94
2018-05-23T07:21:54.628Z,17.68
2018-05-23T07:24:22.129Z,17.65
2018-05-23T07:26:49.625Z,17.75
2018-05-23T07:29:17.153Z,18.11
2018-05-23T07:31:44.668Z,18.48
2018-05-23T07:34:12.201Z,18.05
2018-05-23T07:36:39.697Z,18.05
2018-05-23T07:39:07.225Z,18.11
2018-05-23T07:41:34.749Z,17.96
2018-05-23T07:44:02.237Z,18.29
2018-05-23T07:46:29.748Z,18.19
2018-05-23T07:48:57.245Z,18.19
2018-05-23T07:51:24.761Z,18.14
2018-05-23T07:53:52.277Z,18.16
2018-05-23T07:56:20.048Z,18.28
2018-05-23T07:58:47.541Z,18.28
2018-05-23T08:01:15.036Z,18.53
2018-05-23T08:03:42.556Z,18.60
2018-05-23T08:06:10.062Z,18.63
2018-05-23T08:08:37.577Z,18.72
2018-05-23T08:11:05.077Z,18.67
2018-05-23T08:13:32.613Z,18.93
2018-05-23T08:30:14.582Z,19.19
2018-05-23T08:32:42.064Z,19.19
2018-05-23T08:35:09.552Z,19.27
2018-05-23T08:37:37.029Z,19.29
2018-05-23T08:40:04.489Z,19.18
2018-05-23T08:42:31.963Z,19.47
2018-05-23T08:44:59.424Z,19.54
2018-05-23T08:47:27.154Z,19.28
2018-05-23T08:49:54.623Z,19.39
2018-05-23T08:52:22.090Z,19.54
2018-05-23T08:54:49.610Z,19.62
2018-05-23T08:57:17.084Z,19.83
2018-05-23T08:59:44.581Z,19.86
2018-05-23T09:02:12.041Z,19.86
2018-05-23T09:04:39.663Z,20.17
2018-05-23T09:07:07.137Z,20.00
2018-05-23T09:09:34.613Z,20.06
2018-05-23T09:12:02.103Z,20.42
2018-05-23T09:14:29.598Z,20.67
2018-05-23T09:16:57.094Z,20.62
2018-05-23T09:19:24.575Z,20.41
2018-05-23T09:21:52.540Z,20.09
2018-05-23T09:24:19.996Z,20.25
2018-05-23T09:26:47.444Z,20.08
2018-05-23T09:29:14.907Z,20.42
2018-05-23T09:31:42.360Z,20.54
2018-05-23T09:34:09.832Z,20.38
2018-05-23T09:36:37.287Z,20.25
2018-05-23T09:39:05.558Z,20.31
2018-05-23T09:41:32.999Z,20.19
2018-05-23T09:44:00.457Z,20.10
2018-05-23T09:46:27.935Z,20.04
2018-05-23T09:48:55.388Z,19.94
2018-05-23T09:51:22.853Z,20.14
2018-05-23T09:53:50.299Z,19.93
2018-05-23T09:56:18.050Z,20.10
2018-05-23T09:58:45.513Z,19.99
2018-05-23T10:01:12.959Z,19.86
2018-05-23T10:03:40.479Z,20.17
2018-05-23T10:06:07.919Z,19.98
2018-05-23T10:08:35.403Z,20.00
2018-05-23T10:11:02.866Z,19.97
2018-05-23T10:13:30.760Z,20.25
2018-05-23T10:15:58.203Z,20.31
2018-05-23T10:18:25.651Z,20.24
2018-05-23T10:20:53.140Z,20.44
2018-05-23T10:23:20.596Z,20.53
2018-05-23T10:25:48.075Z,20.81
2018-05-23T10:28:15.524Z,20.68
2018-05-23T10:30:43.048Z,20.66
2018-05-23T10:33:10.500Z,20.84
2018-05-23T10:35:37.958Z,20.71
2018-05-23T10:38:05.445Z,20.93
2018-05-23T10:40:32.891Z,21.10
2018-05-23T10:43:00.356Z,21.24
2018-05-23T10:45:27.809Z,21.37
2018-05-23T10:47:55.279Z,21.25
2018-05-23T10:50:22.723Z,21.32
2018-05-23T10:52:50.191Z,21.59
2018-05-23T10:55:17.640Z,21.33
2018-05-23T10:57:45.119Z,21.65
2018-05-23T11:00:12.600Z,21.49
2018-05-23T11:02:40.031Z,21.49
2018-05-23T11:05:07.499Z,21.64
2018-05-23T11:07:34.946Z,21.85
2018-05-23T11:10:02.417Z,21.60
2018-05-23T11:12:29.867Z,21.23
2018-05-23T11:14:57.399Z,21.23
2018-05-23T11:17:24.828Z,21.44
2018-05-23T11:19:52.279Z,21.52
2018-05-23T11:22:19.767Z,21.58
2018-05-23T11:24:47.220Z,22.05
2018-05-23T11:27:14.695Z,22.27
2018-05-23T11:29:42.202Z,22.25
2018-05-23T11:32:09.890Z,22.20
2018-05-23T11:34:37.349Z,22.33
2018-05-23T11:37:04.821Z,22.61
2018-05-23T11:39:32.303Z,22.60
2018-05-23T11:41:59.749Z,22.40
2018-05-23T11:44:27.217Z,22.61
2018-05-23T11:46:54.680Z,22.60
2018-05-23T11:49:22.496Z,22.49
2018-05-23T11:51:49.949Z,22.90
2018-05-23T11:54:17.404Z,22.60
2018-05-23T11:56:44.875Z,22.78
2018-05-23T11:59:12.339Z,23.00
2018-05-23T12:01:39.824Z,22.87
2018-05-23T12:04:07.270Z,22.76
2018-05-23T12:06:34.760Z,22.97
2018-05-23T12:09:02.220Z,22.80
2018-05-23T12:11:29.683Z,23.15
2018-05-23T12:13:57.155Z,23.14
2018-05-23T12:16:24.621Z,23.40
2018-05-23T12:18:52.096Z,23.33
2018-05-23T12:21:19.543Z,23.15
2018-05-23T12:23:47.283Z,23.40
2018-05-23T12:26:14.723Z,23.55
2018-05-23T12:28:42.196Z,23.58
2018-05-23T12:31:09.667Z,23.74
2018-05-23T12:33:37.116Z,23.75
2018-05-23T12:36:04.588Z,23.32
2018-05-23T12:38:32.167Z,23.42
2018-05-23T12:40:59.867Z,23.36
2018-05-23T12:43:27.344Z,23.49
2018-05-23T12:45:54.788Z,23.60
2018-05-23T12:48:22.308Z,24.04
2018-05-23T12:50:49.747Z,24.01
2018-05-23T12:53:17.219Z,24.16
2018-05-23T12:55:44.667Z,23.83
2018-05-23T12:58:12.358Z,23.63
2018-05-23T13:00:39.805Z,23.64
2018-05-23T13:03:07.260Z,24.00
2018-05-23T13:05:34.728Z,24.51
2018-05-23T13:08:02.186Z,24.70
2018-05-23T13:10:29.689Z,24.40
2018-05-23T13:12:57.140Z,24.47
2018-05-23T13:15:25.043Z,24.17
2018-05-23T13:17:52.507Z,24.16
2018-05-23T13:20:19.962Z,24.63
2018-05-23T13:22:47.440Z,24.17
2018-05-23T13:25:14.907Z,24.11
2018-05-23T13:27:42.383Z,24.11
2018-05-23T13:30:09.840Z,24.35
2018-05-23T13:32:37.332Z,24.48
2018-05-23T13:35:04.780Z,24.36
2018-05-23T13:37:32.248Z,24.61
2018-05-23T13:39:59.715Z,24.78
2018-05-23T13:42:27.167Z,24.91
2018-05-23T13:44:54.666Z,24.82
2018-05-23T13:47:22.108Z,25.01
2018-05-23T13:49:50.168Z,24.95
2018-05-23T13:52:17.608Z,24.80
2018-05-23T13:54:45.092Z,24.99
2018-05-23T13:57:12.571Z,24.98
2018-05-23T13:59:40.024Z,25.22
2018-05-23T14:02:07.495Z,25.34
2018-05-23T14:04:34.940Z,25.08
2018-05-23T14:07:02.444Z,25.14
2018-05-23T14:09:29.895Z,25.34
2018-05-23T14:11:57.347Z,25.14
2018-05-23T14:14:24.832Z,25.55
2018-05-23T14:16:52.275Z,25.66
2018-05-23T14:19:19.788Z,25.52
2018-05-23T14:21:47.212Z,25.17
2018-05-23T14:24:14.705Z,25.16
2018-05-23T14:26:42.184Z,25.34
2018-05-23T14:29:09.636Z,25.50
2018-05-23T14:31:37.132Z,25.76
2018-05-23T14:34:04.605Z,25.66
2018-05-23T14:36:32.071Z,25.28
2018-05-23T14:38:59.548Z,25.30
2018-05-23T14:41:27.012Z,25.67
2018-05-23T14:43:54.476Z,25.97
2018-05-23T14:46:21.920Z,26.18
2018-05-23T14:48:49.715Z,26.37
2018-05-23T14:51:17.183Z,26.53
2018-05-23T14:53:44.632Z,25.66
2018-05-23T14:56:12.144Z,25.20
2018-05-23T14:58:39.568Z,24.22
2018-05-23T15:01:07.494Z,22.57
2018-05-23T15:03:34.944Z,21.93
2018-05-23T15:06:02.421Z,21.45
2018-05-23T15:08:29.946Z,21.27
2018-05-23T15:10:57.364Z,21.02
2018-05-23T15:13:25.137Z,20.98
2018-05-23T15:15:52.588Z,21.06
2018-05-23T15:18:20.043Z,21.07
2018-05-23T15:20:47.519Z,21.17
2018-05-23T15:23:14.972Z,21.20
2018-05-23T15:25:42.587Z,21.25
2018-05-23T15:28:10.032Z,21.23
2018-05-23T15:30:37.505Z,21.36
2018-05-23T15:33:04.976Z,21.46
2018-05-23T15:35:32.427Z,21.31
2018-05-23T15:37:59.924Z,21.14
2018-05-23T15:40:27.381Z,21.03
2018-05-23T15:42:54.843Z,21.15
2018-05-23T15:45:22.336Z,21.35
2018-05-23T15:47:49.779Z,21.14
2018-05-23T15:50:17.287Z,21.12
2018-05-23T15:52:44.765Z,21.11
2018-05-23T15:55:12.210Z,21.00
2018-05-23T15:57:39.699Z,21.26
2018-05-23T16:00:07.160Z,21.24
2018-05-23T16:02:34.627Z,21.19
2018-05-23T16:05:02.080Z,21.25
2018-05-23T16:07:29.597Z,21.15
2018-05-23T16:09:57.056Z,21.11
2018-05-23T16:12:24.514Z,21.18
2018-05-23T16:14:52.047Z,21.18
2018-05-23T16:17:19.451Z,21.19
2018-05-23T16:19:46.954Z,21.18
2018-05-23T16:22:14.403Z,21.00
2018-05-23T16:24:42.196Z,21.18
2018-05-23T16:27:09.652Z,21.00
2018-05-23T16:29:37.100Z,20.89
2018-05-23T16:32:04.572Z,20.89
2018-05-23T16:34:32.044Z,21.14
2018-05-23T16:36:59.515Z,20.75
2018-05-23T16:39:26.984Z,20.88
2018-05-23T16:41:54.628Z,20.87
2018-05-23T16:44:22.138Z,20.98
2018-05-23T16:46:49.559Z,20.50
2018-05-23T16:49:17.028Z,20.44
2018-05-23T16:51:44.481Z,20.51
2018-05-23T16:54:12.000Z,20.41
2018-05-23T16:56:39.460Z,20.48
2018-05-23T16:59:06.947Z,20.47
2018-05-23T17:01:34.400Z,20.42
2018-05-23T17:04:01.853Z,20.31
2018-05-23T17:06:29.429Z,20.30
2018-05-23T17:08:56.800Z,20.25
2018-05-23T17:11:24.281Z,20.22
2018-05-23T17:13:51.743Z,20.11
2018-05-23T17:16:19.355Z,20.07
2018-05-23T17:18:46.894Z,19.84
2018-05-23T17:21:14.330Z,19.91
2018-05-23T17:23:41.800Z,19.79
2018-05-23T17:26:09.248Z,19.71
2018-05-23T17:28:36.765Z,19.57
2018-05-23T17:31:04.215Z,19.35
2018-05-23T17:33:31.959Z,19.24
2018-05-23T17:35:59.323Z,19.08
2018-05-23T17:38:26.776Z,18.89
2018-05-23T17:40:54.255Z,18.80
2018-05-23T17:43:21.713Z,18.82
2018-05-23T17:45:49.202Z,18.86
2018-05-23T17:48:16.679Z,18.76
2018-05-23T17:50:44.273Z,18.83
2018-05-23T17:53:11.742Z,18.99
2018-05-23T17:55:39.196Z,19.03
2018-05-23T17:58:06.664Z,19.20
2018-05-23T18:00:34.131Z,19.21
2018-05-23T18:03:01.607Z,19.19
2018-05-23T18:05:29.065Z,19.21
2018-05-23T18:07:56.571Z,19.33
2018-05-23T18:10:24.032Z,19.26
2018-05-23T18:12:51.508Z,19.46
2018-05-23T18:15:18.995Z,19.63
2018-05-23T18:17:46.474Z,19.45
2018-05-23T18:20:14.012Z,19.52
2018-05-23T18:22:41.468Z,19.48
2018-05-23T18:25:08.981Z,19.29
2018-05-23T18:27:36.437Z,19.41
2018-05-23T18:30:04.693Z,19.15
2018-05-23T18:32:32.198Z,19.72
2018-05-23T18:34:59.681Z,19.61
2018-05-23T18:37:27.193Z,19.46
2018-05-23T18:39:54.659Z,19.36
2018-05-23T18:42:23.157Z,19.27
2018-05-23T18:44:50.624Z,19.20
2018-05-23T18:47:18.476Z,19.09
2018-05-23T18:49:46.073Z,19.20
2018-05-23T18:52:13.545Z,19.23
2018-05-23T18:54:41.019Z,19.04
2018-05-23T18:57:08.637Z,19.04
2018-05-23T18:59:36.252Z,18.90
2018-05-23T19:02:03.726Z,18.84
2018-05-23T19:04:31.236Z,18.98
2018-05-23T19:06:58.752Z,18.97
2018-05-23T19:09:26.217Z,19.18
2018-05-23T19:11:53.729Z,18.99
2018-05-23T19:14:21.189Z,19.12
2018-05-23T19:16:48.848Z,19.36
2018-05-23T19:19:18.085Z,19.46
2018-05-23T19:21:45.588Z,19.21
2018-05-23T19:24:13.107Z,18.96
2018-05-23T19:26:41.472Z,18.89
2018-05-23T19:29:08.961Z,19.36
2018-05-23T19:31:36.428Z,19.12
2018-05-23T19:34:04.127Z,19.25
2018-05-23T19:36:31.616Z,19.34
2018-05-23T19:38:59.151Z,19.06
2018-05-23T19:41:26.642Z,19.41
2018-05-23T19:43:54.114Z,19.53
2018-05-23T19:46:21.603Z,19.61
2018-05-23T19:48:49.084Z,19.56
2018-05-23T19:51:16.819Z,19.70
2018-05-23T19:53:44.289Z,19.31
2018-05-23T19:56:11.826Z,19.39
2018-05-23T19:58:39.321Z,18.90
2018-05-23T20:01:07.769Z,19.02
2018-05-23T20:03:35.300Z,18.98
2018-05-23T20:06:02.764Z,18.90
2018-05-23T20:08:30.260Z,18.55
2018-05-23T20:10:57.720Z,18.40
2018-05-23T20:13:25.188Z,18.44
2018-05-23T20:15:52.676Z,18.25
2018-05-23T20:18:20.162Z,18.18
2018-05-23T20:20:47.697Z,18.24
2018-05-23T20:23:15.139Z,18.15
2018-05-23T20:25:42.814Z,18.14
2018-05-23T20:28:10.276Z,18.58
2018-05-23T20:30:37.735Z,18.54
2018-05-23T20:33:05.995Z,18.01
2018-05-23T20:35:33.455Z,17.90
2018-05-23T20:38:01.005Z,18.01
2018-05-23T20:40:28.467Z,18.00
2018-05-23T20:42:55.960Z,17.99
2018-05-23T20:45:23.460Z,17.90
2018-05-23T20:47:50.925Z,18.03
2018-05-23T20:50:18.560Z,17.84
2018-05-23T20:52:46.031Z,17.79
2018-05-23T20:55:13.503Z,17.90
2018-05-23T20:57:41.000Z,17.62
2018-05-23T21:00:08.464Z,17.70
2018-05-23T21:02:35.975Z,17.78
2018-05-23T21:05:03.483Z,17.81
2018-05-23T21:07:30.928Z,17.67
2018-05-23T21:09:58.408Z,17.75
2018-05-23T21:12:25.867Z,17.65
2018-05-23T21:14:53.541Z,17.76
2018-05-23T21:17:21.006Z,17.62
2018-05-23T21:19:48.472Z,17.82
2018-05-23T21:22:15.970Z,17.79
2018-05-23T21:24:43.436Z,17.71
2018-05-23T21:27:10.945Z,17.81
2018-05-23T21:29:38.403Z,17.81
2018-05-23T21:32:05.865Z,17.75
2018-05-23T21:34:33.425Z,18.10
2018-05-23T21:37:00.837Z,18.09
2018-05-23T21:39:28.449Z,18.18
2018-05-23T21:41:55.960Z,17.90
2018-05-23T21:44:23.415Z,17.81
2018-05-23T21:46:50.899Z,17.87
2018-05-23T21:49:18.356Z,17.88
2018-05-23T21:51:45.940Z,17.98
2018-05-23T21:54:13.412Z,17.96
2018-05-23T21:56:40.903Z,17.78
2018-05-23T21:59:08.359Z,17.77
2018-05-23T22:01:35.816Z,17.73
2018-05-23T22:04:03.300Z,17.70
2018-05-23T22:06:30.756Z,17.80
2018-05-23T22:08:58.248Z,17.65
2018-05-23T22:11:25.708Z,17.64
2018-05-23T22:13:53.199Z,17.79
2018-05-23T22:16:20.656Z,17.69
2018-05-23T22:18:48.136Z,17.74
2018-05-23T22:21:15.625Z,17.52
2018-05-23T22:23:43.088Z,17.61
2018-05-23T22:26:10.568Z,17.85
2018-05-23T22:28:38.048Z,17.81
2018-05-23T22:31:05.558Z,17.77
2018-05-23T22:33:33.029Z,17.82
2018-05-23T22:36:00.562Z,17.80
2018-05-23T22:38:28.032Z,17.72
2018-05-23T22:40:55.492Z,17.76
2018-05-23T22:43:22.971Z,17.76
2018-05-23T22:45:50.431Z,17.64
2018-05-23T22:48:18.107Z,17.75
2018-05-23T22:50:45.556Z,17.67
2018-05-23T22:53:13.031Z,17.72
2018-05-23T22:55:40.509Z,17.70
2018-05-23T22:58:07.969Z,17.76
2018-05-23T23:00:35.476Z,17.64
2018-05-23T23:03:02.932Z,17.68
2018-05-23T23:05:30.630Z,17.73
2018-05-23T23:07:58.107Z,17.66
2018-05-23T23:10:25.579Z,17.66
2018-05-23T23:12:53.055Z,17.76
2018-05-23T23:15:20.508Z,17.77
2018-05-23T23:17:47.992Z,17.62
2018-05-23T23:20:15.447Z,17.45
2018-05-23T23:22:43.303Z,17.58
2018-05-23T23:25:10.759Z,17.47
2018-05-23T23:27:38.225Z,17.31
2018-05-23T23:30:05.704Z,17.27
2018-05-23T23:32:33.155Z,17.40
2018-05-23T23:35:00.693Z,17.38
2018-05-23T23:37:28.163Z,17.39
2018-05-23T23:39:55.651Z,17.36
2018-05-23T23:42:23.111Z,17.26
2018-05-23T23:44:50.587Z,17.26
2018-05-23T23:47:18.067Z,17.23
2018-05-23T23:49:45.527Z,16.93
2018-05-23T23:52:13.048Z,17.26
2018-05-23T23:54:40.603Z,17.11
2018-05-23T23:57:08.171Z,17.17
2018-05-23T23:59:35.632Z,17.28
